createdAt,value
2022-11-02T00:02:18.301Z,82.80
2022-11-02T00:04:45.490Z,82.50
2022-11-02T00:07:12.624Z,82.70
2022-11-02T00:09:39.771Z,82.80
2022-11-02T00:12:07.431Z,82.80
2022-11-02T00:14:34.548Z,82.80
2022-11-02T00:17:01.965Z,82.80
2022-11-02T00:19:30.388Z,82.80
2022-11-02T00:21:59.008Z,83.50
2022-11-02T00:24:26.120Z,82.80
2022-11-02T00:26:54.271Z,82.80
2022-11-02T00:29:23.585Z,82.70
2022-11-02T00:31:51.043Z,82.60
2022-11-02T00:34:18.192Z,82.80
2022-11-02T00:36:45.444Z,82.80
2022-11-02T00:39:12.781Z,82.90
2022-11-02T00:41:39.895Z,82.70
2022-11-02T00:44:07.217Z,82.80
2022-11-02T00:46:34.339Z,82.60
2022-11-02T00:49:01.408Z,82.80
2022-11-02T00:51:28.539Z,82.80
2022-11-02T00:53:55.595Z,82.70
2022-11-02T00:56:22.753Z,82.60
2022-11-02T00:58:49.883Z,82.60
2022-11-02T01:01:17.238Z,82.80
2022-11-02T01:03:44.481Z,82.60
2022-11-02T01:06:14.062Z,82.70
2022-11-02T01:08:41.342Z,82.80
2022-11-02T01:11:28.901Z,82.90
2022-11-02T01:13:56.039Z,82.60
2022-11-02T01:16:23.342Z,82.70
2022-11-02T01:18:55.439Z,82.50
2022-11-02T01:21:23.260Z,82.60
2022-11-02T01:23:50.478Z,82.70
2022-11-02T01:26:18.291Z,82.70
2022-11-02T01:28:45.605Z,82.40
2022-11-02T01:31:12.841Z,82.70
2022-11-02T01:33:46.715Z,82.80
2022-11-02T01:36:16.535Z,82.80
2022-11-02T01:38:43.746Z,83.00
2022-11-02T01:41:12.167Z,83.00
2022-11-02T01:43:42.763Z,82.70
2022-11-02T01:46:15.149Z,83.00
2022-11-02T01:48:47.832Z,82.90
2022-11-02T01:51:21.114Z,82.90
2022-11-02T01:53:50.879Z,82.90
2022-11-02T01:58:57.049Z,82.80
2022-11-02T02:01:25.578Z,82.60
2022-11-02T02:03:54.391Z,82.70
2022-11-02T02:06:21.600Z,82.70
2022-11-02T02:08:51.294Z,82.70
2022-11-02T02:11:29.719Z,82.50
2022-11-02T02:14:12.626Z,82.80
2022-11-02T02:16:57.700Z,82.70
2022-11-02T02:20:02.441Z,82.80
2022-11-02T02:22:29.531Z,82.90
2022-11-02T02:25:44.505Z,82.70
2022-11-02T02:28:46.951Z,82.70
2022-11-02T02:31:14.020Z,82.80
2022-11-02T02:34:09.490Z,82.80
2022-11-02T02:36:51.468Z,82.80
2022-11-02T02:39:41.462Z,82.80
2022-11-02T02:42:12.582Z,82.80
2022-11-02T02:44:59.114Z,82.70
2022-11-02T02:47:30.138Z,82.60
2022-11-02T02:50:14.053Z,82.80
2022-11-02T02:52:43.749Z,82.90
2022-11-02T02:55:18.518Z,82.80
2022-11-02T02:57:46.794Z,82.80
2022-11-02T03:00:16.833Z,82.90
2022-11-02T03:03:01.168Z,82.90
2022-11-02T03:05:36.819Z,82.80
2022-11-02T03:08:16.872Z,82.70
2022-11-02T03:10:53.221Z,82.90
2022-11-02T03:13:29.258Z,82.80
2022-11-02T03:16:04.565Z,82.90
2022-11-02T03:19:05.985Z,83.00
2022-11-02T03:21:42.308Z,82.90
2022-11-02T03:24:27.028Z,83.00
2022-11-02T03:26:57.218Z,82.90
2022-11-02T03:29:35.595Z,83.10
2022-11-02T03:32:12.653Z,82.90
2022-11-02T03:34:52.777Z,82.90
2022-11-02T03:37:35.762Z,83.00
2022-11-02T03:40:17.281Z,83.10
2022-11-02T03:42:45.812Z,83.00
2022-11-02T03:45:22.423Z,83.10
2022-11-02T03:48:01.907Z,83.10
2022-11-02T03:50:29.952Z,83.20
2022-11-02T03:53:03.876Z,83.30
2022-11-02T03:55:40.191Z,83.40
2022-11-02T03:58:11.710Z,83.70
2022-11-02T04:00:50.189Z,83.80
2022-11-02T04:03:18.918Z,83.90
2022-11-02T04:05:46.098Z,84.50
2022-11-02T04:08:22.008Z,84.60
2022-11-02T04:11:13.394Z,84.60
2022-11-02T04:13:59.139Z,84.60
2022-11-02T04:16:28.321Z,84.60
2022-11-02T04:19:14.826Z,84.60
2022-11-02T04:22:01.938Z,84.60
2022-11-02T04:24:47.724Z,84.70
2022-11-02T04:27:19.727Z,84.70
2022-11-02T04:29:48.332Z,84.70
2022-11-02T04:32:15.514Z,84.80
2022-11-02T04:34:42.560Z,84.80
2022-11-02T04:40:01.611Z,84.70
2022-11-02T04:42:28.763Z,84.80
2022-11-02T04:44:55.904Z,84.80
2022-11-02T04:47:23.035Z,84.90
2022-11-02T04:49:50.120Z,84.90
2022-11-02T04:52:17.209Z,84.90
2022-11-02T04:54:44.313Z,85.00
2022-11-02T04:57:11.440Z,85.00
2022-11-02T04:59:38.568Z,85.00
2022-11-02T05:02:05.752Z,85.00
2022-11-02T05:04:33.011Z,85.00
2022-11-02T05:07:01.827Z,85.00
2022-11-02T05:09:29.351Z,85.10
2022-11-02T05:11:56.637Z,84.90
2022-11-02T05:14:24.003Z,84.90
2022-11-02T05:16:51.160Z,85.00
2022-11-02T05:19:18.231Z,85.00
2022-11-02T05:21:45.575Z,85.00
2022-11-02T05:24:12.787Z,85.00
2022-11-02T05:26:40.149Z,85.10
2022-11-02T05:29:07.890Z,85.80
2022-11-02T05:31:35.137Z,85.10
2022-11-02T05:34:02.639Z,85.00
2022-11-02T05:36:29.715Z,85.10
2022-11-02T05:38:57.090Z,85.10
2022-11-02T05:41:24.321Z,85.10
2022-11-02T05:43:51.386Z,85.80
2022-11-02T05:46:19.098Z,85.20
2022-11-02T05:48:46.248Z,85.20
2022-11-02T05:51:13.411Z,85.10
2022-11-02T05:53:40.635Z,85.20
2022-11-02T05:56:08.755Z,85.10
2022-11-02T05:58:35.937Z,85.20
2022-11-02T06:01:08.773Z,85.20
2022-11-02T06:03:36.964Z,85.10
2022-11-02T06:06:06.537Z,85.10
2022-11-02T06:08:35.654Z,85.10
2022-11-02T06:11:11.504Z,85.10
2022-11-02T06:13:39.919Z,85.20
2022-11-02T06:16:09.633Z,85.20
2022-11-02T06:18:37.781Z,85.00
2022-11-02T06:21:05.226Z,85.10
2022-11-02T06:23:32.355Z,85.20
2022-11-02T06:26:00.948Z,85.10
2022-11-02T06:28:29.097Z,85.20
2022-11-02T06:30:56.517Z,85.20
2022-11-02T06:33:23.777Z,85.20
2022-11-02T06:35:53.578Z,85.10
2022-11-02T06:38:20.687Z,85.10
2022-11-02T06:41:05.776Z,85.10
2022-11-02T06:43:34.467Z,85.20
2022-11-02T06:46:01.531Z,85.20
2022-11-02T06:48:34.640Z,85.20
2022-11-02T06:51:03.996Z,85.20
2022-11-02T06:53:31.244Z,85.10
2022-11-02T06:55:59.556Z,85.00
2022-11-02T06:58:27.344Z,85.10
2022-11-02T07:01:00.031Z,85.10
2022-11-02T07:03:28.172Z,85.20
2022-11-02T07:05:58.152Z,85.20
2022-11-02T07:08:26.303Z,85.20
2022-11-02T07:10:54.154Z,85.30
2022-11-02T07:13:21.335Z,85.30
2022-11-02T07:15:53.109Z,85.30
2022-11-02T07:18:20.503Z,85.40
2022-11-02T07:20:47.572Z,85.30
2022-11-02T07:23:14.715Z,85.30
2022-11-02T07:25:41.897Z,85.40
2022-11-02T07:28:10.206Z,85.50
2022-11-02T07:30:37.407Z,85.60
2022-11-02T07:33:04.999Z,85.70
2022-11-02T07:35:34.333Z,85.70
2022-11-02T07:38:06.906Z,85.80
2022-11-02T07:40:36.116Z,86.00
2022-11-02T07:43:03.687Z,86.30
2022-11-02T07:45:31.261Z,86.20
2022-11-02T07:47:58.421Z,86.40
2022-11-02T07:50:29.902Z,86.40
2022-11-02T07:52:58.381Z,86.50
2022-11-02T07:55:27.789Z,86.70
2022-11-02T07:58:00.588Z,86.80
2022-11-02T08:00:31.287Z,86.70
2022-11-02T08:03:01.530Z,87.00
2022-11-02T08:05:30.610Z,87.00
2022-11-02T08:08:06.437Z,87.20
2022-11-02T08:10:37.344Z,87.00
2022-11-02T08:13:11.342Z,87.10
2022-11-02T08:15:38.725Z,87.10
2022-11-02T08:18:14.511Z,87.20
2022-11-02T08:20:41.834Z,86.90
2022-11-02T08:23:10.865Z,86.90
2022-11-02T08:25:39.626Z,86.80
2022-11-02T08:28:08.304Z,87.10
2022-11-02T08:30:35.649Z,87.10
2022-11-02T08:33:08.054Z,87.20
2022-11-02T08:35:38.332Z,87.30
2022-11-02T08:38:06.755Z,87.30
2022-11-02T08:40:34.773Z,87.40
2022-11-02T08:43:07.379Z,87.40
2022-11-02T08:46:08.486Z,87.30
2022-11-02T08:48:22.961Z,87.50
2022-11-02T08:50:50.565Z,87.50
2022-11-02T08:53:18.034Z,87.70
2022-11-02T08:55:45.150Z,87.80
2022-11-02T08:58:12.227Z,87.60
2022-11-02T09:00:39.372Z,87.70
2022-11-02T09:03:07.958Z,87.70
2022-11-02T09:05:43.999Z,88.20
2022-11-02T09:08:19.641Z,87.70
2022-11-02T09:10:52.442Z,87.90
2022-11-02T09:13:25.231Z,88.50
2022-11-02T09:15:54.798Z,88.60
2022-11-02T09:18:22.410Z,88.80
2022-11-02T09:20:49.946Z,88.70
2022-11-02T09:23:18.501Z,88.50
2022-11-02T09:25:45.651Z,89.00
2022-11-02T09:28:14.154Z,89.10
2022-11-02T09:30:41.600Z,89.20
2022-11-02T09:33:09.713Z,89.20
2022-11-02T09:35:39.661Z,89.30
2022-11-02T09:38:07.161Z,89.30
2022-11-02T09:40:45.202Z,89.30
2022-11-02T09:43:33.486Z,89.40
2022-11-02T09:46:04.166Z,89.00
2022-11-02T09:48:57.203Z,89.10
2022-11-02T09:51:35.701Z,89.00
2022-11-02T09:54:17.638Z,89.40
2022-11-02T09:56:46.773Z,89.20
2022-11-02T09:59:25.486Z,89.40
2022-11-02T10:01:58.534Z,89.30
2022-11-02T10:04:47.813Z,89.40
2022-11-02T10:07:41.035Z,89.50
2022-11-02T10:10:26.147Z,89.40
2022-11-02T10:13:13.258Z,89.60
2022-11-02T10:15:59.571Z,89.60
2022-11-02T10:18:28.990Z,89.90
2022-11-02T10:21:02.801Z,89.90
2022-11-02T10:23:38.308Z,90.00
2022-11-02T10:26:05.606Z,89.80
2022-11-02T10:28:41.812Z,89.70
2022-11-02T10:31:27.340Z,90.00
2022-11-02T10:33:58.108Z,89.70
2022-11-02T10:36:40.997Z,89.60
2022-11-02T10:39:32.085Z,89.80
2022-11-02T10:42:39.542Z,89.60
2022-11-02T10:45:36.736Z,89.60
2022-11-02T10:48:30.113Z,89.60
2022-11-02T10:51:12.547Z,89.70
2022-11-02T10:53:44.939Z,89.70
2022-11-02T10:56:18.646Z,89.40
2022-11-02T10:58:57.394Z,89.60
2022-11-02T11:01:24.870Z,89.60
2022-11-02T11:04:03.328Z,89.60
2022-11-02T11:06:37.236Z,89.50
2022-11-02T11:09:12.459Z,89.70
2022-11-02T11:11:39.770Z,89.80
2022-11-02T11:20:31.462Z,89.70
2022-11-02T11:23:21.796Z,90.10
2022-11-02T11:25:57.737Z,89.60
2022-11-02T11:28:31.578Z,89.40
2022-11-02T11:31:06.049Z,89.50
2022-11-02T11:33:42.488Z,89.70
2022-11-02T11:36:11.839Z,89.70
2022-11-02T11:38:47.949Z,89.60
2022-11-02T11:41:15.401Z,89.70
2022-11-02T11:43:43.754Z,89.70
2022-11-02T11:46:13.352Z,89.80
2022-11-02T11:48:40.383Z,89.70
2022-11-02T11:51:33.191Z,89.70
2022-11-02T11:54:24.323Z,89.70
2022-11-02T11:57:12.799Z,89.70
2022-11-02T11:59:52.186Z,89.70
2022-11-02T12:02:27.804Z,89.70
2022-11-02T12:05:15.206Z,89.70
2022-11-02T12:08:08.354Z,89.80
2022-11-02T12:10:35.694Z,89.90
2022-11-02T12:13:20.838Z,90.00
2022-11-02T12:15:47.985Z,89.90
2022-11-02T12:19:02.201Z,89.90
2022-11-02T12:21:45.135Z,89.90
2022-11-02T12:24:17.761Z,90.00
2022-11-02T12:27:31.532Z,90.00
2022-11-02T12:30:43.340Z,90.10
2022-11-02T12:34:07.328Z,90.00
2022-11-02T12:40:08.311Z,90.00
2022-11-02T12:42:51.539Z,89.80
2022-11-02T12:45:37.275Z,89.90
2022-11-02T12:48:06.330Z,89.60
2022-11-02T12:51:07.819Z,89.60
2022-11-02T12:53:37.896Z,89.60
2022-11-02T12:56:11.010Z,89.60
2022-11-02T12:58:41.136Z,89.40
2022-11-02T13:01:20.162Z,89.50
2022-11-02T13:04:05.347Z,89.50
2022-11-02T13:06:42.907Z,89.40
2022-11-02T13:09:31.096Z,89.40
2022-11-02T13:12:10.287Z,89.40
2022-11-02T13:14:47.211Z,90.00
2022-11-02T13:17:47.913Z,89.30
2022-11-02T13:20:38.288Z,89.30
2022-11-02T13:23:18.922Z,89.30
2022-11-02T13:25:54.295Z,89.10
2022-11-02T13:28:39.241Z,89.80
2022-11-02T13:31:13.314Z,89.10
2022-11-02T13:33:53.597Z,89.00
2022-11-02T13:36:20.907Z,89.00
2022-11-02T13:38:51.161Z,89.00
2022-11-02T13:41:47.733Z,88.90
2022-11-02T13:44:17.852Z,89.00
2022-11-02T13:47:03.595Z,89.00
2022-11-02T13:49:36.207Z,88.90
2022-11-02T13:52:19.788Z,88.90
2022-11-02T13:57:28.202Z,88.90
2022-11-02T13:59:55.687Z,88.90
2022-11-02T14:02:24.474Z,88.90
2022-11-02T14:04:51.963Z,88.80
2022-11-02T14:07:40.953Z,88.70
2022-11-02T14:10:20.027Z,88.80
2022-11-02T14:12:49.301Z,88.80
2022-11-02T14:15:16.359Z,88.90
2022-11-02T14:18:02.361Z,88.80
2022-11-02T14:20:42.358Z,89.00
2022-11-02T14:23:12.777Z,88.80
2022-11-02T14:25:45.785Z,88.80
2022-11-02T14:28:30.867Z,88.80
2022-11-02T14:31:03.779Z,88.90
2022-11-02T14:33:36.933Z,88.90
2022-11-02T14:36:18.532Z,88.90
2022-11-02T14:41:51.328Z,88.90
2022-11-02T14:44:39.667Z,88.90
2022-11-02T14:47:16.030Z,88.90
2022-11-02T14:49:56.243Z,88.70
2022-11-02T14:52:26.099Z,88.70
2022-11-02T14:55:19.157Z,88.80
2022-11-02T14:58:15.523Z,89.00
2022-11-02T15:00:48.870Z,88.90
2022-11-02T15:03:25.280Z,88.80
2022-11-02T15:06:27.302Z,88.90
2022-11-02T15:08:58.320Z,89.00
2022-11-02T15:11:47.380Z,89.00
2022-11-02T15:14:36.357Z,89.00
2022-11-02T15:17:24.740Z,89.10
2022-11-02T15:19:58.757Z,89.00
2022-11-02T15:22:32.099Z,89.10
2022-11-02T15:25:04.330Z,89.10
2022-11-02T15:27:32.184Z,89.00
2022-11-02T15:30:00.406Z,89.20
2022-11-02T15:32:30.156Z,89.10
2022-11-02T15:34:57.842Z,89.20
2022-11-02T15:37:30.476Z,89.10
2022-11-02T15:39:59.900Z,89.10
2022-11-02T15:42:51.199Z,89.00
2022-11-02T15:45:48.928Z,89.00
2022-11-02T15:48:32.233Z,89.00
2022-11-02T15:51:20.748Z,89.00
2022-11-02T15:53:56.762Z,88.90
2022-11-02T15:56:53.194Z,88.90
2022-11-02T15:59:45.077Z,88.80
2022-11-02T16:02:29.896Z,88.80
2022-11-02T16:05:02.616Z,88.80
2022-11-02T16:07:38.582Z,88.80
2022-11-02T16:10:22.667Z,88.70
2022-11-02T16:13:08.170Z,88.60
2022-11-02T16:15:37.830Z,88.60
2022-11-02T16:18:05.188Z,88.50
2022-11-02T16:20:40.056Z,88.60
2022-11-02T16:23:13.044Z,88.50
2022-11-02T16:25:47.114Z,88.60
2022-11-02T16:28:24.778Z,88.50
2022-11-02T16:31:08.742Z,88.60
2022-11-02T16:33:46.655Z,88.50
2022-11-02T16:36:22.628Z,88.40
2022-11-02T16:39:03.565Z,88.30
2022-11-02T16:41:34.083Z,88.40
2022-11-02T16:44:08.631Z,88.30
2022-11-02T16:46:58.850Z,88.30
2022-11-02T16:49:28.040Z,88.50
2022-11-02T16:52:17.116Z,88.30
2022-11-02T16:54:45.265Z,88.40
2022-11-02T16:57:12.603Z,88.20
2022-11-02T17:00:11.521Z,88.50
2022-11-02T17:02:43.612Z,88.40
2022-11-02T17:05:20.870Z,88.40
2022-11-02T17:08:05.262Z,88.20
2022-11-02T17:10:34.751Z,88.10
2022-11-02T17:13:03.184Z,88.10
2022-11-02T17:15:34.177Z,88.10
2022-11-02T17:18:10.310Z,88.10
2022-11-02T17:20:39.490Z,88.10
2022-11-02T17:23:30.797Z,87.90
2022-11-02T17:26:22.458Z,88.00
2022-11-02T17:29:18.965Z,88.00
2022-11-02T17:31:46.352Z,87.80
2022-11-02T17:34:20.815Z,87.90
2022-11-02T17:36:49.471Z,87.90
2022-11-02T17:39:18.300Z,87.80
2022-11-02T17:42:07.950Z,87.70
2022-11-02T17:44:35.044Z,87.80
2022-11-02T17:47:08.078Z,87.70
2022-11-02T17:49:38.433Z,87.80
2022-11-02T17:52:06.338Z,87.70
2022-11-02T17:54:33.496Z,87.60
2022-11-02T17:57:01.900Z,87.70
2022-11-02T17:59:29.331Z,87.70
2022-11-02T18:01:59.562Z,87.60
2022-11-02T18:04:26.771Z,87.70
2022-11-02T18:06:53.896Z,87.70
2022-11-02T18:09:24.052Z,87.60
2022-11-02T18:11:51.435Z,87.70
2022-11-02T18:14:18.569Z,87.70
2022-11-02T18:16:48.515Z,87.60
2022-11-02T18:19:16.956Z,87.60
2022-11-02T18:21:44.203Z,87.70
2022-11-02T18:24:11.340Z,87.70
2022-11-02T18:26:44.191Z,87.70
2022-11-02T18:29:13.623Z,87.70
2022-11-02T18:31:40.819Z,87.70
2022-11-02T18:34:07.948Z,87.70
2022-11-02T18:36:41.173Z,87.60
2022-11-02T18:39:08.286Z,87.60
2022-11-02T18:41:37.380Z,87.60
2022-11-02T18:44:13.496Z,87.60
2022-11-02T18:46:42.224Z,87.60
2022-11-02T18:49:09.474Z,87.50
2022-11-02T18:51:36.880Z,87.60
2022-11-02T18:54:06.134Z,87.50
2022-11-02T18:56:33.423Z,87.50
2022-11-02T18:59:00.611Z,87.60
2022-11-02T19:01:30.226Z,87.40
2022-11-02T19:03:59.207Z,87.60
2022-11-02T19:06:46.971Z,87.60
2022-11-02T19:09:18.335Z,87.40
2022-11-02T19:12:00.312Z,87.40
2022-11-02T19:14:29.949Z,87.40
2022-11-02T19:16:57.137Z,87.40
2022-11-02T19:19:24.319Z,87.40
2022-11-02T19:21:54.515Z,87.40
2022-11-02T19:24:21.771Z,87.40
2022-11-02T19:26:49.973Z,87.50
2022-11-02T19:29:17.481Z,87.50
2022-11-02T19:31:44.785Z,87.30
2022-11-02T19:34:12.266Z,87.30
2022-11-02T19:36:39.467Z,87.30
2022-11-02T19:39:10.165Z,87.30
2022-11-02T19:41:38.750Z,87.30
2022-11-02T19:44:06.705Z,87.20
2022-11-02T19:46:34.655Z,87.40
2022-11-02T19:49:01.893Z,87.40
2022-11-02T19:51:32.018Z,87.60
2022-11-02T19:54:01.332Z,87.70
2022-11-02T19:56:30.602Z,87.70
2022-11-02T19:58:58.598Z,87.70
2022-11-02T20:01:27.358Z,87.60
2022-11-02T20:03:55.537Z,87.70
2022-11-02T20:06:33.294Z,87.70
2022-11-02T20:09:07.299Z,87.50
2022-11-02T20:11:36.344Z,87.40
2022-11-02T20:14:05.455Z,87.50
2022-11-02T20:16:32.681Z,87.50
2022-11-02T20:18:59.912Z,87.60
2022-11-02T20:21:34.517Z,87.50
2022-11-02T20:24:05.702Z,87.40
2022-11-02T20:26:35.561Z,87.40
2022-11-02T20:29:04.324Z,87.40
2022-11-02T20:31:36.956Z,87.50
2022-11-02T20:34:06.513Z,87.40
2022-11-02T20:36:34.787Z,87.30
2022-11-02T20:39:04.930Z,87.30
2022-11-02T20:41:32.638Z,87.30
2022-11-02T20:43:59.903Z,87.30
2022-11-02T20:46:38.273Z,87.20
2022-11-02T20:49:21.121Z,87.20
2022-11-02T20:51:55.195Z,87.20
2022-11-02T20:54:22.581Z,87.10
2022-11-02T20:56:50.363Z,87.20
2022-11-02T20:59:18.108Z,87.00
2022-11-02T21:01:45.500Z,87.20
2022-11-02T21:04:18.596Z,87.10
2022-11-02T21:06:48.728Z,86.90
2022-11-02T21:09:15.999Z,86.90
2022-11-02T21:12:01.596Z,87.00
2022-11-02T21:14:28.720Z,87.00
2022-11-02T21:16:55.893Z,87.00
2022-11-02T21:19:23.063Z,87.00
2022-11-02T21:21:53.738Z,87.00
2022-11-02T21:24:23.793Z,86.90
2022-11-02T21:26:51.455Z,87.00
2022-11-02T21:29:18.550Z,87.00
2022-11-02T21:31:45.736Z,86.90
2022-11-02T21:34:12.878Z,86.90
2022-11-02T21:36:40.070Z,86.80
2022-11-02T21:39:07.197Z,86.80
2022-11-02T21:41:38.429Z,87.50
2022-11-02T21:44:07.102Z,86.80
2022-11-02T21:46:34.347Z,86.70
2022-11-02T21:49:01.645Z,86.60
2022-11-02T21:51:28.918Z,86.70
2022-11-02T21:53:56.949Z,86.70
2022-11-02T21:56:26.884Z,86.70
2022-11-02T21:58:55.578Z,86.60
2022-11-02T22:01:47.146Z,86.70
2022-11-02T22:04:14.576Z,86.60
2022-11-02T22:06:42.696Z,86.60
2022-11-02T22:09:12.255Z,86.60
2022-11-02T22:11:39.591Z,86.60
2022-11-02T22:14:07.082Z,86.50
2022-11-02T22:16:39.507Z,86.50
2022-11-02T22:19:15.560Z,86.50
2022-11-02T22:21:45.044Z,86.50
2022-11-02T22:24:12.582Z,86.50
2022-11-02T22:26:40.434Z,86.50
2022-11-02T22:29:08.396Z,86.40
2022-11-02T22:31:42.413Z,86.30
2022-11-02T22:34:15.497Z,86.30
2022-11-02T22:36:44.753Z,86.30
2022-11-02T22:39:13.980Z,86.20
2022-11-02T22:41:47.836Z,86.40
2022-11-02T22:44:17.016Z,86.30
2022-11-02T22:46:46.681Z,86.30
2022-11-02T22:49:15.485Z,86.30
2022-11-02T22:51:45.459Z,86.30
2022-11-02T22:54:15.744Z,86.20
2022-11-02T22:56:44.542Z,86.30
2022-11-02T22:59:12.140Z,86.20
2022-11-02T23:01:40.029Z,86.10
2022-11-02T23:04:07.678Z,86.10
2022-11-02T23:06:38.827Z,86.10
2022-11-02T23:09:06.390Z,86.10
2022-11-02T23:11:36.618Z,86.10
2022-11-02T23:14:09.869Z,86.10
2022-11-02T23:16:39.063Z,86.10
2022-11-02T23:19:23.574Z,86.00
2022-11-02T23:22:13.619Z,86.00
2022-11-02T23:25:06.951Z,85.90
2022-11-02T23:27:56.918Z,86.00
2022-11-02T23:30:44.206Z,86.00
2022-11-02T23:33:11.423Z,86.00
2022-11-02T23:35:56.948Z,86.10
2022-11-02T23:38:24.359Z,86.00
2022-11-02T23:40:55.178Z,86.00
2022-11-02T23:43:22.325Z,86.10
2022-11-02T23:45:49.450Z,86.00
2022-11-02T23:51:06.864Z,86.10
2022-11-02T23:53:52.610Z,85.80
2022-11-02T23:56:42.910Z,86.00
2022-11-02T23:59:17.794Z,85.90
